createdAt,value
2023-03-31T00:02:56.544Z,11.45
2023-03-31T00:08:02.123Z,15.48
2023-03-31T00:13:09.965Z,10.02
2023-03-31T00:18:15.048Z,12.65
2023-03-31T00:23:28.030Z,8.70
2023-03-31T00:28:36.012Z,5.78
2023-03-31T00:33:41.290Z,9.55
2023-03-31T00:38:46.650Z,7.82
2023-03-31T00:44:13.431Z,5.18
2023-03-31T00:49:23.959Z,5.88
2023-03-31T00:54:30.289Z,6.55
2023-03-31T00:59:40.474Z,3.65
2023-03-31T01:04:50.539Z,5.57
2023-03-31T01:15:04.665Z,3.60
2023-03-31T01:20:15.335Z,3.50
2023-03-31T01:25:54.552Z,4.32
2023-03-31T01:31:29.355Z,4.88
2023-03-31T01:37:03.520Z,6.18
2023-03-31T01:42:15.800Z,4.43
2023-03-31T01:47:25.913Z,4.90
2023-03-31T01:57:41.128Z,4.93
2023-03-31T02:02:49.485Z,4.50
2023-03-31T02:07:56.007Z,5.20
2023-03-31T02:13:04.500Z,4.07
2023-03-31T02:18:11.647Z,5.68
2023-03-31T02:23:18.353Z,5.93
2023-03-31T02:28:29.245Z,5.70
2023-03-31T02:33:34.458Z,8.73
2023-03-31T02:38:42.825Z,7.55
2023-03-31T02:43:50.627Z,8.77
2023-03-31T02:48:57.527Z,6.90
2023-03-31T02:54:41.341Z,7.18
2023-03-31T02:59:55.221Z,6.47
2023-03-31T03:05:19.078Z,9.02
2023-03-31T03:10:32.135Z,10.55
2023-03-31T03:15:46.977Z,10.63
2023-03-31T03:21:01.280Z,6.38
2023-03-31T03:26:07.665Z,6.10
2023-03-31T03:31:16.055Z,5.00
2023-03-31T03:36:21.371Z,6.80
2023-03-31T03:41:26.722Z,9.73
2023-03-31T03:46:34.657Z,7.15
2023-03-31T03:51:39.812Z,8.68
2023-03-31T03:56:45.142Z,11.00
2023-03-31T04:01:53.068Z,9.70
2023-03-31T04:06:58.310Z,6.03
2023-03-31T04:12:03.858Z,7.50
2023-03-31T04:17:16.144Z,8.52
2023-03-31T04:22:21.178Z,13.50
2023-03-31T04:27:28.896Z,31.73
2023-03-31T04:32:36.960Z,16.83
2023-03-31T04:37:42.184Z,10.32
2023-03-31T04:42:47.802Z,8.88
2023-03-31T04:47:55.633Z,4.60
2023-03-31T04:53:00.880Z,4.32
2023-03-31T04:58:06.135Z,4.00
2023-03-31T05:03:14.584Z,3.10
2023-03-31T05:08:19.961Z,3.60
2023-03-31T05:13:25.022Z,3.25
2023-03-31T05:18:32.788Z,3.20
2023-03-31T05:23:37.944Z,2.88
2023-03-31T05:28:43.244Z,3.03
2023-03-31T05:33:50.938Z,2.67
2023-03-31T05:38:55.930Z,2.45
2023-03-31T05:44:02.355Z,2.30
2023-03-31T05:49:11.665Z,2.90
2023-03-31T05:54:16.757Z,2.83
2023-03-31T05:59:22.495Z,3.08
2023-03-31T06:04:31.637Z,2.78
2023-03-31T06:09:36.713Z,2.63
2023-03-31T06:14:41.796Z,2.97
2023-03-31T06:19:49.522Z,2.50
2023-03-31T06:24:55.214Z,2.63
2023-03-31T06:30:00.416Z,2.40
2023-03-31T06:35:12.052Z,2.75
2023-03-31T06:40:17.382Z,2.10
2023-03-31T06:45:22.634Z,3.30
2023-03-31T06:50:31.497Z,3.67
2023-03-31T06:55:36.660Z,2.63
2023-03-31T07:00:41.851Z,3.50
2023-03-31T07:05:51.701Z,4.35
2023-03-31T07:10:58.857Z,4.20
2023-03-31T07:16:05.700Z,4.80
2023-03-31T07:21:13.838Z,4.47
2023-03-31T07:26:19.095Z,2.83
2023-03-31T07:31:24.365Z,3.58
2023-03-31T07:36:32.505Z,2.92
2023-03-31T07:41:37.965Z,4.10
2023-03-31T07:46:43.268Z,3.15
2023-03-31T07:51:50.986Z,3.20
2023-03-31T07:56:56.450Z,6.07
2023-03-31T08:02:01.713Z,4.30
2023-03-31T08:07:09.553Z,5.82
2023-03-31T08:12:14.952Z,6.65
2023-03-31T08:17:20.155Z,4.82
2023-03-31T08:22:27.962Z,4.28
2023-03-31T08:27:36.366Z,3.75
2023-03-31T08:32:41.601Z,3.97
2023-03-31T08:37:49.623Z,4.35
2023-03-31T08:42:57.013Z,3.53
2023-03-31T08:48:07.336Z,6.97
2023-03-31T08:53:22.911Z,2.20
2023-03-31T08:58:37.378Z,5.03
2023-03-31T09:03:48.493Z,3.17
2023-03-31T09:09:02.003Z,4.50
2023-03-31T09:14:27.423Z,2.85
2023-03-31T09:19:38.898Z,3.22
2023-03-31T09:24:52.297Z,2.15
2023-03-31T09:29:59.927Z,3.03
2023-03-31T09:35:17.854Z,3.53
2023-03-31T09:40:27.550Z,2.70
2023-03-31T09:45:34.280Z,4.85
2023-03-31T09:50:42.169Z,5.20
2023-03-31T09:55:52.881Z,4.67
2023-03-31T10:01:03.755Z,3.22
2023-03-31T10:06:13.450Z,2.40
2023-03-31T10:11:22.262Z,3.45
2023-03-31T10:16:31.641Z,3.05
2023-03-31T10:21:39.969Z,4.32
2023-03-31T10:26:52.134Z,3.05
2023-03-31T10:31:57.219Z,3.40
2023-03-31T10:37:02.321Z,2.38
2023-03-31T10:42:10.312Z,2.22
2023-03-31T10:47:24.206Z,2.50
2023-03-31T10:52:30.385Z,2.30
2023-03-31T10:57:44.437Z,2.05
2023-03-31T11:03:18.492Z,1.98
2023-03-31T11:08:30.984Z,2.53
2023-03-31T11:13:42.659Z,3.03
2023-03-31T11:18:59.826Z,2.65
2023-03-31T11:24:12.551Z,2.30
2023-03-31T11:29:32.910Z,2.55
2023-03-31T11:34:55.693Z,1.63
2023-03-31T11:40:12.615Z,2.00
2023-03-31T11:45:22.229Z,2.28
2023-03-31T11:50:29.885Z,1.75
2023-03-31T11:55:36.119Z,1.70
2023-03-31T12:00:45.711Z,1.67
2023-03-31T12:05:52.991Z,1.63
2023-03-31T12:10:59.581Z,1.23
2023-03-31T12:16:10.241Z,1.10
2023-03-31T12:21:15.741Z,1.70
2023-03-31T12:26:36.534Z,1.35
2023-03-31T12:31:46.483Z,1.90
2023-03-31T12:37:10.339Z,1.77
2023-03-31T12:42:42.674Z,1.95
2023-03-31T12:48:06.041Z,1.75
2023-03-31T12:53:20.586Z,1.67
2023-03-31T12:58:47.175Z,1.52
2023-03-31T13:04:12.843Z,1.88
2023-03-31T13:09:48.616Z,1.70
2023-03-31T13:14:55.172Z,1.60
2023-03-31T13:20:20.148Z,1.70
2023-03-31T13:25:52.514Z,1.70
2023-03-31T13:31:02.256Z,1.90
2023-03-31T13:36:23.168Z,1.80
2023-03-31T13:41:35.290Z,1.60
2023-03-31T13:46:54.509Z,1.65
2023-03-31T13:57:28.695Z,1.52
2023-03-31T14:03:03.294Z,1.50
2023-03-31T14:08:15.718Z,2.30
2023-03-31T14:13:22.298Z,2.22
2023-03-31T14:18:29.364Z,1.73
2023-03-31T14:23:44.892Z,2.15
2023-03-31T14:29:03.920Z,2.00
2023-03-31T14:34:25.353Z,2.17
2023-03-31T14:39:35.377Z,2.08
2023-03-31T14:44:42.851Z,1.90
2023-03-31T14:49:48.009Z,2.13
2023-03-31T14:54:56.874Z,2.33
2023-03-31T15:00:02.626Z,2.67
2023-03-31T15:05:10.320Z,2.25
2023-03-31T15:10:22.321Z,1.90
2023-03-31T15:15:27.461Z,2.20
2023-03-31T15:20:35.037Z,2.10
2023-03-31T15:25:44.873Z,2.03
2023-03-31T15:30:59.914Z,2.00
2023-03-31T15:36:16.329Z,4.93
2023-03-31T15:46:51.816Z,32.25
2023-03-31T15:52:00.787Z,10.15
2023-03-31T15:57:10.004Z,4.63
2023-03-31T16:02:17.057Z,3.83
2023-03-31T16:07:26.567Z,2.50
2023-03-31T16:12:36.327Z,2.40
2023-03-31T16:17:44.024Z,2.20
2023-03-31T16:22:51.531Z,2.95
2023-03-31T16:28:01.492Z,2.60
2023-03-31T16:33:08.920Z,5.70
2023-03-31T16:38:16.623Z,3.95
2023-03-31T16:43:26.357Z,4.75
2023-03-31T16:48:33.962Z,6.68
2023-03-31T16:53:40.614Z,8.57
2023-03-31T16:58:49.179Z,10.02
2023-03-31T17:03:55.342Z,30.70
2023-03-31T17:09:01.906Z,12.35
2023-03-31T17:14:11.245Z,6.68
2023-03-31T17:19:17.453Z,6.03
2023-03-31T17:24:22.683Z,8.10
2023-03-31T17:29:30.957Z,14.30
2023-03-31T17:34:36.144Z,15.45
2023-03-31T17:39:41.252Z,16.48
2023-03-31T17:44:51.879Z,17.00
2023-03-31T17:49:56.988Z,17.58
2023-03-31T17:55:02.063Z,17.80
2023-03-31T18:00:12.059Z,16.60
2023-03-31T18:05:18.587Z,15.27
2023-03-31T18:10:23.948Z,13.30
2023-03-31T18:15:32.658Z,12.38
2023-03-31T18:20:37.814Z,16.15
2023-03-31T18:25:46.418Z,14.48
2023-03-31T18:30:54.257Z,14.48
2023-03-31T18:35:59.560Z,12.90
2023-03-31T18:41:04.762Z,11.40
2023-03-31T18:46:14.039Z,13.40
2023-03-31T18:51:19.583Z,14.18
2023-03-31T18:56:24.735Z,16.33
2023-03-31T19:01:32.969Z,15.35
2023-03-31T19:06:38.426Z,34.75
2023-03-31T19:11:43.656Z,34.33
2023-03-31T19:16:51.905Z,39.35
2023-03-31T19:21:57.652Z,42.92
2023-03-31T19:27:02.950Z,32.30
2023-03-31T19:32:11.125Z,19.42
2023-03-31T19:37:16.772Z,20.77
2023-03-31T19:42:21.952Z,19.83
2023-03-31T19:47:29.739Z,23.60
2023-03-31T19:52:34.970Z,26.98
2023-03-31T19:57:40.280Z,15.70
2023-03-31T20:02:48.577Z,5.50
2023-03-31T20:07:54.047Z,5.88
2023-03-31T20:12:59.155Z,3.30
2023-03-31T20:18:07.067Z,2.83
2023-03-31T20:23:12.403Z,2.80
2023-03-31T20:28:17.568Z,4.25
2023-03-31T20:33:25.535Z,2.92
2023-03-31T20:38:31.206Z,2.97
2023-03-31T20:43:36.599Z,3.25
2023-03-31T20:48:46.089Z,4.45
2023-03-31T20:53:53.192Z,3.38
2023-03-31T20:58:59.261Z,3.00
2023-03-31T21:04:08.391Z,2.72
2023-03-31T21:09:14.855Z,2.83
2023-03-31T21:14:20.508Z,2.97
2023-03-31T21:19:28.239Z,2.83
2023-03-31T21:24:33.336Z,3.22
2023-03-31T21:29:38.781Z,3.25
2023-03-31T21:34:46.505Z,3.05
2023-03-31T21:39:51.499Z,4.15
2023-03-31T21:44:59.310Z,2.42
2023-03-31T21:50:07.722Z,3.38
2023-03-31T21:55:12.962Z,2.50
2023-03-31T22:00:18.424Z,3.28
2023-03-31T22:05:26.259Z,2.90
2023-03-31T22:10:31.415Z,2.85
2023-03-31T22:15:36.973Z,2.60
2023-03-31T22:20:44.810Z,2.75
2023-03-31T22:25:50.214Z,3.30
2023-03-31T22:30:55.362Z,2.45
2023-03-31T22:36:03.371Z,2.55
2023-03-31T22:41:09.019Z,2.50
2023-03-31T22:46:14.120Z,2.85
2023-03-31T22:51:21.998Z,2.97
2023-03-31T22:56:27.970Z,3.10
2023-03-31T23:01:33.292Z,3.13
2023-03-31T23:06:41.126Z,3.10
2023-03-31T23:11:46.947Z,3.20
2023-03-31T23:16:52.147Z,3.15
2023-03-31T23:22:02.413Z,2.80
2023-03-31T23:27:07.654Z,2.97
2023-03-31T23:32:12.925Z,3.05
2023-03-31T23:37:20.939Z,2.65
2023-03-31T23:42:26.543Z,3.08
2023-03-31T23:47:32.842Z,3.15
2023-03-31T23:52:40.916Z,3.20
2023-03-31T23:57:46.084Z,3.08
